Time;durP1;ratioP1;P1;durP2;ratioP2;P2;SDS_P1;SDS_P2;PMS_P1;PMS_P2;Temp;Humidity;BMP_temperature;BMP_pressure;BME280_temperature;BME280_humidity;BME280_pressure;Samples;Min_cycle;Max_cycle;Signal;HPM_P1;HPM_P2
2021/08/20 00:00:19;;;;;;;1.00;0.97;;;21.10;1.00;;;;;;5055448;28;21248;-80
2021/08/20 00:02:48;;;;;;;1.53;1.07;;;21.10;1.00;;;;;;5057963;28;20547;-81
2021/08/20 00:05:17;;;;;;;2.90;1.10;;;21.10;1.00;;;;;;5094080;28;20418;-80
2021/08/20 00:07:45;;;;;;;1.50;1.20;;;21.10;1.00;;;;;;5074513;28;20453;-80
2021/08/20 00:10:15;;;;;;;2.10;1.10;;;21.10;1.00;;;;;;5093474;28;20506;-81
2021/08/20 00:12:43;;;;;;;1.30;1.20;;;21.10;1.00;;;;;;5091173;28;20446;-81
2021/08/20 00:15:13;;;;;;;1.20;1.10;;;21.10;1.00;;;;;;5093353;28;20451;-81
2021/08/20 00:17:42;;;;;;;1.20;1.10;;;21.10;1.00;;;;;;5092640;28;20442;-81
2021/08/20 00:20:12;;;;;;;1.57;1.17;;;21.10;1.00;;;;;;5093764;28;20830;-81
2021/08/20 00:22:40;;;;;;;2.17;1.13;;;21.10;1.00;;;;;;5092021;28;20473;-80
2021/08/20 00:25:09;;;;;;;1.10;1.00;;;21.10;1.00;;;;;;5093967;28;20937;-80
2021/08/20 00:27:37;;;;;;;1.30;1.20;;;21.10;1.00;;;;;;5092800;28;20857;-81
2021/08/20 00:30:08;;;;;;;2.03;1.20;;;21.10;1.00;;;;;;5093291;28;20437;-80
2021/08/20 00:32:36;;;;;;;1.20;1.10;;;21.10;1.00;;;;;;5091914;28;20465;-81
2021/08/20 00:35:05;;;;;;;1.20;1.10;;;21.10;1.00;;;;;;5075894;28;20815;-80
2021/08/20 00:37:35;;;;;;;2.10;1.20;;;20.90;1.00;;;;;;5091633;28;20460;-80
2021/08/20 00:40:05;;;;;;;1.07;0.97;;;21.00;1.00;;;;;;5093059;28;20807;-80
2021/08/20 00:42:34;;;;;;;1.50;1.10;;;21.00;1.00;;;;;;5091421;28;20486;-80
2021/08/20 00:45:03;;;;;;;2.90;1.20;;;21.00;1.00;;;;;;5093177;28;20434;-80
2021/08/20 00:47:31;;;;;;;1.20;1.10;;;21.00;1.00;;;;;;5091685;28;20517;-81
2021/08/20 00:50:02;;;;;;;1.50;1.10;;;21.00;1.00;;;;;;5092577;28;20430;-81
2021/08/20 00:52:31;;;;;;;1.63;1.27;;;21.00;1.00;;;;;;5091273;28;20447;-80
2021/08/20 00:55:01;;;;;;;2.37;1.30;;;21.00;1.00;;;;;;5073985;28;20578;-81
2021/08/20 00:57:30;;;;;;;2.70;1.20;;;21.00;1.00;;;;;;5097703;28;20452;-81
2021/08/20 00:59:59;;;;;;;1.70;1.30;;;21.00;1.00;;;;;;5112528;28;20444;-80
2021/08/20 01:02:27;;;;;;;1.30;0.90;;;20.90;1.00;;;;;;5111730;28;20469;-80
2021/08/20 01:04:55;;;;;;;1.37;1.10;;;21.00;1.00;;;;;;5113098;28;20446;-81
2021/08/20 01:07:24;;;;;;;2.73;1.00;;;21.00;1.00;;;;;;5110404;28;20445;-79
2021/08/20 01:09:52;;;;;;;1.10;1.00;;;21.00;1.00;;;;;;5111072;28;20429;-81
2021/08/20 01:12:21;;;;;;;1.70;1.10;;;21.00;1.00;;;;;;5075115;28;20955;-80
2021/08/20 01:14:52;;;;;;;1.30;0.90;;;21.00;1.00;;;;;;5091985;28;20783;-80
2021/08/20 01:17:20;;;;;;;4.50;1.90;;;21.00;1.00;;;;;;5073062;28;20430;-80
2021/08/20 01:19:48;;;;;;;1.30;1.20;;;21.00;1.00;;;;;;5073217;28;20442;-81
2021/08/20 01:22:16;;;;;;;2.20;1.20;;;20.90;1.00;;;;;;5090896;28;20988;-81
2021/08/20 01:24:46;;;;;;;1.70;1.13;;;20.90;1.00;;;;;;5091619;28;20515;-81
2021/08/20 01:27:16;;;;;;;1.33;1.00;;;20.90;1.00;;;;;;5091147;28;20453;-81
2021/08/20 01:29:44;;;;;;;1.20;1.10;;;20.90;1.00;;;;;;5072411;28;20523;-81
2021/08/20 01:32:13;;;;;;;1.70;1.10;;;20.90;1.00;;;;;;5091543;28;20434;-80
2021/08/20 01:34:41;;;;;;;0.90;0.90;;;20.90;1.00;;;;;;5090556;28;20449;-80
2021/08/20 01:37:09;;;;;;;1.10;1.00;;;20.90;1.00;;;;;;5091310;28;20446;-80
2021/08/20 01:39:37;;;;;;;1.97;1.17;;;20.90;1.00;;;;;;5090583;28;20442;-81
2021/08/20 01:42:05;;;;;;;1.73;1.10;;;20.90;1.00;;;;;;5091234;28;20461;-80
2021/08/20 01:44:35;;;;;;;1.63;1.17;;;20.90;1.00;;;;;;5090408;28;20450;-80
2021/08/20 01:47:03;;;;;;;1.23;1.10;;;20.80;29.50;;;;;;5090871;28;20502;-80
2021/08/20 01:49:31;;;;;;;1.57;1.47;;;20.70;99.90;;;;;;5071902;28;20446;-80
2021/08/20 01:51:59;;;;;;;1.10;1.00;;;20.70;99.30;;;;;;5091534;28;20452;-80
2021/08/20 01:54:27;;;;;;;1.20;1.10;;;20.70;80.90;;;;;;5090654;28;20520;-81
2021/08/20 01:56:56;;;;;;;1.10;1.00;;;20.80;90.10;;;;;;5090930;28;20814;-81
2021/08/20 01:59:24;;;;;;;1.67;1.20;;;20.80;93.80;;;;;;5090060;28;20441;-81
2021/08/20 02:01:53;;;;;;;1.60;1.10;;;20.80;61.40;;;;;;5090469;28;20454;-80
2021/08/20 02:04:22;;;;;;;1.77;1.20;;;20.80;41.70;;;;;;5089467;28;20488;-80
2021/08/20 02:06:50;;;;;;;1.80;1.20;;;20.80;16.20;;;;;;5072794;28;20462;-80
2021/08/20 02:09:18;;;;;;;1.17;0.93;;;20.80;26.70;;;;;;5089140;28;20446;-81
2021/08/20 02:11:46;;;;;;;1.33;1.10;;;20.80;10.90;;;;;;5089944;28;20471;-81
2021/08/20 02:14:14;;;;;;;2.63;1.30;;;20.70;98.00;;;;;;5089197;28;20547;-80
2021/08/20 02:16:42;;;;;;;1.10;1.00;;;20.60;99.90;;;;;;5090935;28;20454;-80
2021/08/20 02:19:12;;;;;;;1.77;1.03;;;20.60;99.90;;;;;;5088469;28;20441;-80
2021/08/20 02:21:41;;;;;;;2.57;1.00;;;20.70;99.90;;;;;;5090687;28;20848;-80
2021/08/20 02:24:09;;;;;;;1.27;1.00;;;20.70;97.50;;;;;;5089648;28;20483;-81
2021/08/20 02:26:37;;;;;;;1.27;1.17;;;20.70;7.20;;;;;;5091064;28;20472;-81
2021/08/20 02:29:05;;;;;;;1.60;1.40;;;20.70;34.70;;;;;;5089552;28;20446;-81
2021/08/20 02:31:33;;;;;;;1.90;1.20;;;20.70;41.10;;;;;;5073200;28;20450;-80
2021/08/20 02:34:02;;;;;;;2.43;1.13;;;20.70;28.80;;;;;;5071530;28;20948;-80
2021/08/20 02:36:31;;;;;;;3.00;1.27;;;20.70;1.00;;;;;;5072239;28;20537;-80
2021/08/20 02:38:59;;;;;;;1.30;1.20;;;20.70;1.00;;;;;;5089346;28;20494;-80
2021/08/20 02:41:29;;;;;;;1.10;1.00;;;20.70;1.00;;;;;;5090605;28;20470;-79
2021/08/20 02:43:57;;;;;;;1.27;1.17;;;20.60;1.00;;;;;;5071424;28;20535;-80
2021/08/20 02:46:25;;;;;;;1.37;1.10;;;20.60;1.00;;;;;;5072237;28;20452;-80
2021/08/20 02:48:53;;;;;;;0.90;0.90;;;20.70;1.00;;;;;;5089354;28;20809;-79
2021/08/20 02:51:21;;;;;;;1.30;1.20;;;20.70;1.00;;;;;;5091159;28;20887;-81
2021/08/20 02:53:51;;;;;;;3.33;1.70;;;20.70;1.00;;;;;;5089892;28;21014;-80
2021/08/20 02:56:19;;;;;;;2.43;1.20;;;20.70;1.00;;;;;;5072687;28;20450;-81
2021/08/20 02:58:47;;;;;;;1.40;1.23;;;20.70;1.00;;;;;;5071851;28;20793;-79
2021/08/20 03:01:16;;;;;;;1.30;1.20;;;20.70;1.00;;;;;;5090913;28;21007;-80
2021/08/20 03:03:44;;;;;;;1.40;1.10;;;20.70;1.00;;;;;;5090150;28;21025;-80
2021/08/20 03:06:12;;;;;;;1.57;1.00;;;20.70;1.00;;;;;;5090669;28;20430;-80
2021/08/20 03:08:40;;;;;;;2.53;1.73;;;20.70;1.00;;;;;;5090321;28;20499;-80
2021/08/20 03:11:10;;;;;;;2.23;1.00;;;20.70;1.00;;;;;;5089525;28;20449;-79
2021/08/20 03:13:38;;;;;;;1.77;1.20;;;20.70;1.00;;;;;;5089521;28;20503;-80
2021/08/20 03:16:06;;;;;;;2.17;1.10;;;20.70;7.30;;;;;;5090393;28;20502;-80
2021/08/20 03:18:34;;;;;;;1.13;1.03;;;20.70;1.00;;;;;;5071174;28;20445;-80
2021/08/20 03:21:02;;;;;;;1.17;1.07;;;20.60;1.00;;;;;;5089905;28;20450;-80
2021/08/20 03:23:31;;;;;;;1.40;1.20;;;20.70;1.00;;;;;;5089996;28;20477;-81
2021/08/20 03:25:59;;;;;;;1.30;1.10;;;20.70;1.00;;;;;;5090581;28;20442;-80
2021/08/20 03:28:28;;;;;;;1.00;0.90;;;20.70;1.00;;;;;;5090421;28;20460;-80
2021/08/20 03:30:56;;;;;;;1.47;1.23;;;20.70;1.00;;;;;;5092002;28;20495;-80
2021/08/20 03:33:24;;;;;;;2.20;1.30;;;20.70;1.00;;;;;;5093974;28;20458;-80
2021/08/20 03:35:52;;;;;;;1.63;1.53;;;20.60;1.00;;;;;;5093911;28;20498;-80
2021/08/20 03:38:21;;;;;;;1.73;1.20;;;20.70;1.00;;;;;;5093468;28;20502;-80
2021/08/20 03:40:50;;;;;;;1.17;1.07;;;20.60;1.00;;;;;;5093466;28;20446;-81
2021/08/20 03:43:18;;;;;;;1.57;0.90;;;20.60;1.00;;;;;;5092999;28;20477;-81
2021/08/20 03:45:48;;;;;;;1.60;1.10;;;20.60;1.00;;;;;;5093091;28;20437;-81
2021/08/20 03:48:16;;;;;;;1.20;1.10;;;20.60;1.00;;;;;;5093507;28;21133;-80
2021/08/20 03:50:44;;;;;;;1.27;1.17;;;20.60;1.00;;;;;;5093300;28;20494;-80
2021/08/20 03:53:12;;;;;;;1.20;1.10;;;20.60;1.00;;;;;;5074803;28;20469;-80
2021/08/20 03:55:40;;;;;;;1.50;1.40;;;20.60;1.00;;;;;;5093735;28;20433;-80
2021/08/20 03:58:08;;;;;;;2.80;1.13;;;20.60;1.00;;;;;;5075375;28;20453;-81
2021/08/20 04:00:38;;;;;;;2.70;1.10;;;20.60;1.00;;;;;;5092874;28;20497;-81
2021/08/20 04:03:07;;;;;;;2.33;1.10;;;20.60;1.00;;;;;;5097239;28;20465;-80
2021/08/20 04:05:36;;;;;;;1.57;1.00;;;20.60;1.00;;;;;;5106204;28;20505;-80
2021/08/20 04:08:04;;;;;;;1.03;0.93;;;20.60;1.00;;;;;;5113659;28;20448;-81
2021/08/20 04:10:32;;;;;;;2.23;1.90;;;20.60;11.90;;;;;;5093893;28;20973;-80
2021/08/20 04:13:00;;;;;;;1.33;1.20;;;20.60;1.00;;;;;;5112284;28;21191;-80
2021/08/20 04:15:29;;;;;;;1.20;1.00;;;20.60;1.00;;;;;;5113108;28;20441;-81
2021/08/20 04:17:57;;;;;;;1.20;1.10;;;20.60;1.00;;;;;;5090582;28;20454;-80
2021/08/20 04:20:26;;;;;;;1.43;1.10;;;20.60;1.00;;;;;;5091565;28;20446;-80
2021/08/20 04:22:55;;;;;;;2.13;1.10;;;20.60;18.60;;;;;;5093321;28;20518;-80
2021/08/20 04:25:24;;;;;;;2.90;1.13;;;20.60;72.70;;;;;;5091876;28;20500;-80
2021/08/20 04:27:52;;;;;;;2.20;1.20;;;20.60;64.10;;;;;;5093235;28;20434;-80
2021/08/20 04:30:22;;;;;;;1.13;1.03;;;20.60;69.60;;;;;;5073512;28;20437;-81
2021/08/20 04:32:51;;;;;;;1.17;1.00;;;20.60;94.70;;;;;;5093283;28;20524;-80
2021/08/20 04:35:20;;;;;;;1.30;1.20;;;20.60;99.90;;;;;;5091719;28;20865;-81
2021/08/20 04:37:49;;;;;;;2.33;1.27;;;20.60;73.70;;;;;;5093348;28;20433;-81
2021/08/20 04:40:17;;;;;;;1.13;1.03;;;20.60;77.50;;;;;;5073130;28;20438;-80
2021/08/20 04:42:45;;;;;;;1.53;1.13;;;20.50;79.20;;;;;;5093008;28;20513;-80
2021/08/20 04:45:15;;;;;;;2.03;1.00;;;20.60;92.40;;;;;;5073433;28;20469;-80
2021/08/20 04:47:44;;;;;;;1.60;1.20;;;20.50;99.90;;;;;;5093191;28;20433;-81
2021/08/20 04:50:13;;;;;;;5.87;1.30;;;20.50;99.90;;;;;;5091284;28;20450;-80
2021/08/20 04:52:42;;;;;;;1.40;1.00;;;20.50;76.60;;;;;;5092678;28;20449;-80
2021/08/20 04:55:11;;;;;;;1.60;1.13;;;20.60;85.00;;;;;;5092857;28;20790;-80
2021/08/20 04:57:39;;;;;;;1.30;1.20;;;20.50;99.90;;;;;;5092804;28;20450;-80
2021/08/20 05:00:09;;;;;;;3.03;1.30;;;20.40;99.90;;;;;;5091073;28;20495;-81
2021/08/20 05:02:37;;;;;;;1.30;1.20;;;20.40;99.90;;;;;;5092304;28;20461;-80
2021/08/20 05:05:06;;;;;;;1.70;1.20;;;20.50;99.90;;;;;;5091718;28;20523;-80
2021/08/20 05:07:35;;;;;;;1.87;1.60;;;20.50;99.90;;;;;;5092588;28;20468;-80
2021/08/20 05:10:06;;;;;;;2.90;1.03;;;20.60;99.90;;;;;;5090713;28;20438;-80
2021/08/20 05:12:35;;;;;;;1.20;1.10;;;20.60;99.90;;;;;;5091447;28;20462;-80
2021/08/20 05:15:04;;;;;;;2.07;1.37;;;20.60;99.90;;;;;;5091107;28;20438;-80
2021/08/20 05:17:32;;;;;;;5.63;2.87;;;20.60;99.90;;;;;;5091852;28;21009;-80
2021/08/20 05:20:00;;;;;;;4.63;2.93;;;20.60;99.90;;;;;;5090919;28;21002;-80
2021/08/20 05:22:42;;;;;;;1.40;1.07;;;20.60;99.90;;;;;;5092035;28;20469;-80
2021/08/20 05:25:13;;;;;;;1.20;1.10;;;20.60;99.90;;;;;;5091464;28;20475;-80
2021/08/20 05:27:43;;;;;;;1.20;1.10;;;20.60;99.90;;;;;;5072815;28;20476;-80
2021/08/20 05:30:13;;;;;;;4.17;1.30;;;20.60;99.90;;;;;;5090626;28;20459;-80
2021/08/20 05:32:41;;;;;;;1.97;1.30;;;20.60;99.90;;;;;;5091440;28;20526;-80
2021/08/20 05:35:12;;;;;;;1.40;1.07;;;20.50;99.90;;;;;;5091136;28;20446;-80
2021/08/20 05:37:40;;;;;;;1.60;1.33;;;20.60;99.90;;;;;;5090982;28;20457;-80
2021/08/20 05:40:09;;;;;;;3.37;1.43;;;20.50;99.90;;;;;;5090663;28;20441;-81
2021/08/20 05:42:38;;;;;;;1.30;1.20;;;20.40;99.90;;;;;;5090073;28;20453;-80
2021/08/20 05:45:09;;;;;;;1.60;1.50;;;20.30;99.90;;;;;;5091131;28;20488;-82
2021/08/20 05:47:38;;;;;;;2.50;1.20;;;20.30;99.90;;;;;;5090170;28;20433;-80
2021/08/20 05:50:08;;;;;;;1.17;1.03;;;20.40;99.90;;;;;;5091275;28;20449;-80
2021/08/20 05:52:38;;;;;;;1.10;1.00;;;20.50;99.90;;;;;;5071922;28;20462;-80
2021/08/20 05:55:07;;;;;;;1.40;1.30;;;20.50;99.90;;;;;;5090666;28;20452;-81
2021/08/20 05:57:36;;;;;;;1.23;1.17;;;20.60;99.90;;;;;;5090337;28;20430;-80
2021/08/20 06:00:05;;;;;;;1.40;1.20;;;20.70;99.90;;;;;;5072940;28;20507;-81
2021/08/20 06:02:34;;;;;;;1.10;1.00;;;20.70;99.90;;;;;;5089802;28;20458;-80
2021/08/20 06:05:03;;;;;;;1.83;1.43;;;20.70;99.90;;;;;;5067096;28;20912;-80
2021/08/20 06:07:31;;;;;;;1.63;1.53;;;20.80;99.90;;;;;;5069824;28;20445;-80
2021/08/20 06:09:59;;;;;;;2.30;1.27;;;20.80;99.90;;;;;;5052392;28;20450;-80
2021/08/20 06:12:29;;;;;;;8.80;1.43;;;20.80;90.40;;;;;;5069034;28;20470;-80
2021/08/20 06:14:58;;;;;;;2.13;1.33;;;20.80;1.60;;;;;;5053106;28;20804;-80
2021/08/20 06:17:26;;;;;;;1.63;1.53;;;20.90;1.00;;;;;;5078217;28;20452;-80
2021/08/20 06:19:56;;;;;;;2.03;1.10;;;20.90;1.00;;;;;;5090739;28;20507;-80
2021/08/20 06:22:24;;;;;;;2.40;1.10;;;20.90;1.00;;;;;;5089435;28;20437;-80
2021/08/20 06:24:52;;;;;;;1.53;1.03;;;20.90;1.00;;;;;;5091296;28;20488;-80
2021/08/20 06:27:20;;;;;;;1.80;1.30;;;21.00;1.00;;;;;;5089497;28;20446;-80
2021/08/20 06:29:48;;;;;;;2.57;1.23;;;21.00;1.00;;;;;;5090890;28;20551;-80
2021/08/20 06:32:16;;;;;;;1.40;1.30;;;21.00;1.00;;;;;;5090929;28;20442;-80
2021/08/20 06:34:44;;;;;;;2.37;1.50;;;21.00;1.00;;;;;;5091278;28;20926;-80
2021/08/20 06:37:14;;;;;;;1.40;1.30;;;21.00;1.00;;;;;;5089750;28;20434;-80
2021/08/20 06:39:42;;;;;;;1.40;1.30;;;21.10;1.00;;;;;;5072268;28;20503;-80
2021/08/20 06:42:11;;;;;;;1.93;1.20;;;21.10;1.00;;;;;;5089827;28;21014;-80
2021/08/20 06:44:39;;;;;;;1.40;1.30;;;21.00;1.00;;;;;;5090677;28;20441;-80
2021/08/20 06:47:07;;;;;;;1.20;1.10;;;21.00;1.00;;;;;;5090026;28;20438;-81
2021/08/20 06:49:35;;;;;;;1.50;1.20;;;21.10;1.00;;;;;;5090857;28;20471;-81
2021/08/20 06:52:03;;;;;;;1.77;1.67;;;21.10;1.00;;;;;;5090223;28;20529;-81
2021/08/20 06:54:33;;;;;;;2.60;1.50;;;21.20;1.00;;;;;;5091682;28;20448;-80
2021/08/20 06:57:01;;;;;;;3.53;1.57;;;21.20;1.00;;;;;;5091158;28;20429;-81
2021/08/20 06:59:29;;;;;;;2.87;1.90;;;21.30;1.00;;;;;;5090102;28;20448;-80
2021/08/20 07:01:57;;;;;;;2.40;1.57;;;21.40;1.00;;;;;;5090768;28;20949;-81
2021/08/20 07:04:26;;;;;;;3.10;2.10;;;21.50;1.00;;;;;;5089298;28;20545;-81
2021/08/20 07:06:55;;;;;;;2.97;1.70;;;21.60;1.00;;;;;;5072505;28;21060;-80
2021/08/20 07:09:24;;;;;;;3.90;2.40;;;21.70;1.00;;;;;;5075519;28;20809;-80
2021/08/20 07:11:53;;;;;;;4.27;2.33;;;21.70;1.00;;;;;;5108803;28;20507;-80
2021/08/20 07:14:21;;;;;;;6.13;2.50;;;21.90;1.00;;;;;;5096456;28;20549;-80
2021/08/20 07:16:49;;;;;;;2.80;2.17;;;22.00;1.00;;;;;;5114833;28;20460;-80
2021/08/20 07:19:18;;;;;;;3.17;2.87;;;22.10;1.00;;;;;;5113840;28;20455;-81
2021/08/20 07:21:46;;;;;;;6.00;2.80;;;22.20;1.00;;;;;;5114054;28;20435;-80
2021/08/20 07:24:14;;;;;;;3.40;3.10;;;22.40;1.00;;;;;;5114080;28;20460;-80
2021/08/20 07:26:42;;;;;;;5.17;3.47;;;22.50;1.00;;;;;;5095179;28;20473;-80
2021/08/20 07:29:11;;;;;;;3.13;2.93;;;22.60;1.00;;;;;;5094217;28;20440;-80
2021/08/20 07:31:40;;;;;;;4.60;2.37;;;22.60;1.00;;;;;;5094742;28;20434;-80
2021/08/20 07:34:08;;;;;;;3.67;2.70;;;22.70;1.00;;;;;;5093977;28;20526;-80
2021/08/20 07:36:37;;;;;;;4.10;3.80;;;22.70;1.00;;;;;;5076088;28;20463;-80
2021/08/20 07:39:05;;;;;;;5.80;3.63;;;22.70;1.00;;;;;;5094489;28;20456;-81
2021/08/20 07:41:33;;;;;;;4.33;3.63;;;22.80;1.00;;;;;;5094935;28;20445;-80
2021/08/20 07:44:01;;;;;;;5.27;3.80;;;22.80;1.00;;;;;;5094493;28;20547;-81
2021/08/20 07:46:31;;;;;;;4.97;3.40;;;22.80;1.00;;;;;;5094400;28;20469;-80
2021/08/20 07:48:59;;;;;;;3.90;3.60;;;22.80;1.00;;;;;;5075330;28;20806;-80
2021/08/20 07:51:27;;;;;;;4.83;3.83;;;22.90;1.00;;;;;;5094647;28;20451;-80
2021/08/20 07:53:55;;;;;;;4.50;3.87;;;22.90;1.00;;;;;;5094093;28;20472;-80
2021/08/20 07:56:25;;;;;;;4.23;3.37;;;22.90;1.00;;;;;;5095007;28;20437;-81
2021/08/20 07:58:53;;;;;;;3.53;3.27;;;23.00;1.00;;;;;;5075143;28;20443;-80
2021/08/20 08:01:22;;;;;;;3.40;3.10;;;23.00;1.00;;;;;;5095050;28;20437;-80
2021/08/20 08:03:57;;;;;;;4.00;3.30;;;23.00;1.00;;;;;;5094146;28;20468;-80
2021/08/20 08:06:26;;;;;;;4.80;2.93;;;23.00;1.00;;;;;;5076875;28;20474;-80
2021/08/20 08:08:58;;;;;;;3.30;3.00;;;23.00;1.00;;;;;;5073129;28;20814;-80
2021/08/20 08:11:30;;;;;;;4.07;3.17;;;23.00;1.00;;;;;;5072987;28;20435;-80
2021/08/20 08:14:03;;;;;;;4.63;2.73;;;23.00;99.90;;;;;;5072774;28;20477;-80
2021/08/20 08:16:31;;;;;;;3.20;2.73;;;22.90;1.00;;;;;;5083132;28;20892;-80
2021/08/20 08:19:01;;;;;;;4.90;3.13;;;23.00;1.00;;;;;;5093017;28;20449;-81
2021/08/20 08:21:30;;;;;;;3.70;2.63;;;23.00;99.90;;;;;;5076008;28;20498;-80
2021/08/20 08:23:58;;;;;;;3.30;2.30;;;23.00;99.90;;;;;;5074658;28;20466;-81
2021/08/20 08:26:26;;;;;;;3.07;2.87;;;23.10;1.00;;;;;;5094245;28;20483;-80
2021/08/20 08:28:56;;;;;;;2.90;2.60;;;23.10;1.00;;;;;;5093871;28;20787;-80
2021/08/20 08:31:25;;;;;;;4.70;2.70;;;23.10;99.90;;;;;;5093612;28;20443;-80
2021/08/20 08:33:53;;;;;;;3.23;2.93;;;23.20;99.90;;;;;;5092967;28;20570;-81
2021/08/20 08:36:23;;;;;;;2.00;1.90;;;23.20;99.90;;;;;;5093302;28;20845;-81
2021/08/20 08:38:51;;;;;;;2.40;2.20;;;23.20;99.90;;;;;;5092652;28;20491;-81
2021/08/20 08:41:20;;;;;;;3.10;2.03;;;23.20;99.90;;;;;;5094209;28;20442;-81
2021/08/20 08:43:48;;;;;;;4.90;3.60;;;23.20;99.90;;;;;;5073657;28;20472;-81
2021/08/20 08:46:22;;;;;;;3.00;2.80;;;23.30;99.90;;;;;;5093764;28;20964;-81
2021/08/20 08:48:51;;;;;;;4.33;2.50;;;23.20;99.90;;;;;;5092216;28;20479;-80
2021/08/20 08:51:20;;;;;;;2.90;2.60;;;23.20;99.90;;;;;;5093295;28;20446;-81
2021/08/20 08:53:50;;;;;;;2.93;2.73;;;23.20;99.90;;;;;;5093570;28;20841;-80
2021/08/20 08:56:19;;;;;;;2.90;2.60;;;23.20;99.90;;;;;;5075386;28;20464;-81
2021/08/20 08:58:47;;;;;;;4.47;2.90;;;23.20;99.90;;;;;;5092623;28;20446;-81
2021/08/20 09:01:29;;;;;;;2.87;2.67;;;23.20;99.90;;;;;;5093104;28;20461;-81
2021/08/20 09:04:09;;;;;;;3.13;2.60;;;23.20;99.90;;;;;;5092183;28;21070;-81
2021/08/20 09:06:39;;;;;;;4.20;3.20;;;23.20;99.90;;;;;;5075291;28;21014;-81
2021/08/20 09:09:09;;;;;;;7.07;3.40;;;23.20;99.90;;;;;;5092806;28;20438;-79
2021/08/20 09:11:38;;;;;;;5.30;3.73;;;23.20;99.90;;;;;;5090528;28;20495;-81
2021/08/20 09:14:07;;;;;;;3.90;3.53;;;23.30;99.90;;;;;;5074699;28;20525;-81
2021/08/20 09:16:37;;;;;;;3.33;3.10;;;23.30;99.90;;;;;;5092543;28;20464;-81
2021/08/20 09:19:16;;;;;;;4.43;3.50;;;23.30;99.90;;;;;;5093322;28;20444;-81
2021/08/20 09:21:47;;;;;;;3.63;3.33;;;23.30;99.90;;;;;;5091847;28;20437;-81
2021/08/20 09:24:37;;;;;;;4.03;3.70;;;23.30;99.90;;;;;;5092901;28;20527;-81
2021/08/20 09:27:27;;;;;;;3.30;3.00;;;23.40;99.90;;;;;;5092012;28;20523;-81
2021/08/20 09:29:58;;;;;;;3.07;2.87;;;23.50;99.90;;;;;;5073614;28;20492;-81
2021/08/20 09:32:28;;;;;;;3.00;2.70;;;23.50;99.90;;;;;;5092547;28;20474;-80
2021/08/20 09:34:58;;;;;;;3.13;2.83;;;23.50;99.90;;;;;;5092699;28;20476;-81
2021/08/20 09:37:27;;;;;;;3.37;2.93;;;23.60;99.90;;;;;;5091755;28;20441;-80
2021/08/20 09:40:01;;;;;;;2.73;2.50;;;23.60;99.90;;;;;;5092189;28;20445;-81
2021/08/20 09:42:29;;;;;;;2.77;2.33;;;23.70;99.90;;;;;;5091950;28;20476;-81
2021/08/20 09:45:12;;;;;;;2.87;2.50;;;23.70;99.90;;;;;;5092338;28;20516;-81
2021/08/20 09:47:43;;;;;;;2.77;2.57;;;23.70;99.90;;;;;;5092309;28;21107;-81
2021/08/20 09:50:11;;;;;;;3.00;2.80;;;23.70;99.90;;;;;;5091887;28;21006;-81
2021/08/20 09:52:39;;;;;;;3.40;3.10;;;23.70;99.90;;;;;;5092116;28;20461;-81
2021/08/20 09:55:09;;;;;;;2.80;2.10;;;23.70;99.90;;;;;;5091614;28;20441;-80
2021/08/20 09:57:40;;;;;;;2.10;1.90;;;23.70;99.90;;;;;;5073150;28;20503;-81
2021/08/20 10:00:10;;;;;;;2.50;2.30;;;23.60;99.90;;;;;;5091162;28;20842;-81
2021/08/20 10:02:39;;;;;;;1.80;1.70;;;23.60;99.90;;;;;;5091974;28;20480;-81
2021/08/20 10:05:09;;;;;;;2.20;2.00;;;23.60;99.90;;;;;;5091315;28;21154;-81
2021/08/20 10:07:39;;;;;;;3.47;3.27;;;23.70;99.90;;;;;;5091992;28;20474;-81
2021/08/20 10:10:10;;;;;;;3.03;2.83;;;23.70;99.90;;;;;;5091001;28;20504;-81
2021/08/20 10:12:43;;;;;;;3.47;3.07;;;23.70;99.90;;;;;;5071996;28;20469;-81
2021/08/20 10:15:11;;;;;;;3.27;2.40;;;23.80;99.90;;;;;;5073674;28;20466;-80
2021/08/20 10:17:40;;;;;;;2.50;2.30;;;23.90;99.90;;;;;;5100240;28;20812;-81
2021/08/20 10:20:09;;;;;;;3.63;3.40;;;24.00;99.90;;;;;;5090526;28;21046;-81
2021/08/20 10:22:39;;;;;;;3.40;2.77;;;24.10;99.90;;;;;;5091684;28;20985;-81
2021/08/20 10:25:10;;;;;;;3.20;2.17;;;24.20;99.90;;;;;;5090402;28;20491;-81
2021/08/20 10:27:39;;;;;;;4.20;1.80;;;24.20;99.90;;;;;;5091669;28;20470;-81
2021/08/20 10:30:10;;;;;;;2.70;2.50;;;24.20;99.90;;;;;;5090025;28;20441;-80
2021/08/20 10:32:38;;;;;;;1.90;1.80;;;24.30;99.90;;;;;;5091241;28;20457;-81
2021/08/20 10:35:09;;;;;;;1.80;1.70;;;24.30;99.90;;;;;;5090303;28;20434;-80
2021/08/20 10:37:37;;;;;;;2.97;2.37;;;24.30;99.90;;;;;;5090961;28;20454;-80
2021/08/20 10:40:24;;;;;;;3.00;2.20;;;24.30;99.90;;;;;;5092190;28;20460;-80
2021/08/20 10:42:52;;;;;;;2.37;2.27;;;24.30;99.90;;;;;;5076342;28;20469;-81
2021/08/20 10:45:20;;;;;;;2.30;2.20;;;24.30;99.90;;;;;;5075514;28;20496;-80
2021/08/20 10:48:14;;;;;;;2.47;2.27;;;24.20;99.90;;;;;;5076814;28;20481;-81
2021/08/20 10:50:42;;;;;;;2.60;2.37;;;24.30;99.90;;;;;;5075559;28;20961;-80
2021/08/20 10:53:22;;;;;;;1.90;1.77;;;24.40;99.90;;;;;;5094095;28;20526;-80
2021/08/20 10:55:51;;;;;;;3.30;2.20;;;24.50;99.90;;;;;;5094972;28;20441;-81
2021/08/20 10:58:40;;;;;;;5.80;3.10;;;24.60;99.90;;;;;;5094674;28;20501;-81
2021/08/20 11:01:20;;;;;;;1.73;1.63;;;24.60;99.90;;;;;;5095303;28;20446;-80
2021/08/20 11:03:52;;;;;;;2.60;1.90;;;24.60;99.90;;;;;;5094300;28;20461;-80
2021/08/20 11:06:57;;;;;;;2.80;2.27;;;24.70;99.90;;;;;;5086227;28;20459;-80
2021/08/20 11:09:34;;;;;;;1.90;1.73;;;24.70;99.90;;;;;;5092395;28;20453;-79
2021/08/20 11:12:05;;;;;;;2.50;2.30;;;24.80;99.90;;;;;;5092866;28;20432;-81
2021/08/20 11:14:37;;;;;;;3.03;2.47;;;24.80;99.90;;;;;;5094328;28;20965;-80
2021/08/20 11:17:07;;;;;;;2.60;2.40;;;24.80;99.90;;;;;;5094583;28;20462;-81
2021/08/20 11:19:55;;;;;;;1.70;1.60;;;24.80;99.90;;;;;;5093369;28;20452;-80
2021/08/20 11:22:29;;;;;;;1.70;1.60;;;24.80;99.90;;;;;;5075527;28;20445;-79
2021/08/20 11:25:21;;;;;;;2.03;1.83;;;24.80;99.90;;;;;;5073989;28;20856;-80
2021/08/20 11:28:01;;;;;;;2.50;1.90;;;24.80;99.90;;;;;;5073128;28;20471;-80
2021/08/20 11:30:31;;;;;;;3.73;1.97;;;24.80;99.90;;;;;;5056299;28;20950;-80
2021/08/20 11:33:13;;;;;;;2.20;2.00;;;24.90;99.90;;;;;;5075125;28;20516;-81
2021/08/20 11:35:42;;;;;;;2.27;2.07;;;24.90;99.90;;;;;;5094295;28;20548;-81
2021/08/20 11:38:10;;;;;;;1.83;1.73;;;24.90;99.90;;;;;;5092507;28;21128;-81
2021/08/20 11:40:50;;;;;;;2.00;1.90;;;25.00;99.90;;;;;;5094012;28;20502;-80
2021/08/20 11:43:19;;;;;;;2.23;2.03;;;25.00;99.90;;;;;;5093024;28;20893;-81
2021/08/20 11:45:53;;;;;;;2.70;2.50;;;25.00;99.90;;;;;;5095005;28;20445;-80
2021/08/20 11:48:22;;;;;;;2.83;2.63;;;25.10;99.90;;;;;;5075134;28;20469;-80
2021/08/20 11:50:50;;;;;;;2.60;2.40;;;25.10;99.90;;;;;;5093453;28;20445;-81
2021/08/20 11:53:23;;;;;;;2.23;1.97;;;25.00;99.90;;;;;;5092127;28;20458;-81
2021/08/20 11:55:51;;;;;;;2.57;2.03;;;25.00;99.90;;;;;;5094755;28;20499;-80
2021/08/20 11:58:29;;;;;;;2.77;2.57;;;25.00;99.90;;;;;;5093237;28;20434;-80
2021/08/20 12:00:58;;;;;;;2.80;2.20;;;24.90;99.90;;;;;;5093690;28;20449;-81
2021/08/20 12:03:26;;;;;;;2.47;2.27;;;24.90;99.90;;;;;;5092748;28;20469;-80
2021/08/20 12:06:07;;;;;;;3.83;2.10;;;24.90;99.90;;;;;;5093777;28;21291;-80
2021/08/20 12:08:35;;;;;;;2.20;2.10;;;24.90;99.90;;;;;;5092859;28;20478;-81
2021/08/20 12:11:05;;;;;;;2.27;2.13;;;25.00;99.90;;;;;;5092703;28;20499;-80
2021/08/20 12:13:43;;;;;;;2.17;2.07;;;25.00;99.90;;;;;;5092113;28;20989;-80
2021/08/20 12:16:12;;;;;;;1.80;1.70;;;25.00;99.90;;;;;;5074506;28;20511;-81
2021/08/20 12:18:44;;;;;;;2.00;1.90;;;25.10;99.90;;;;;;5092671;28;20811;-80
2021/08/20 12:21:16;;;;;;;2.17;1.87;;;25.10;99.90;;;;;;5073512;28;20540;-80
2021/08/20 12:23:59;;;;;;;2.43;2.23;;;25.20;99.90;;;;;;5092491;28;20884;-80
2021/08/20 12:26:27;;;;;;;1.90;1.80;;;25.20;99.90;;;;;;5073609;28;20453;-80
2021/08/20 12:28:57;;;;;;;1.80;1.70;;;25.20;99.90;;;;;;5074330;28;20539;-79
2021/08/20 12:31:26;;;;;;;2.60;1.77;;;25.40;99.90;;;;;;5090460;28;20450;-80
2021/08/20 12:34:00;;;;;;;2.20;2.00;;;25.30;99.90;;;;;;5092264;28;20523;-81
2021/08/20 12:36:28;;;;;;;1.80;1.70;;;25.40;99.90;;;;;;5090466;28;20446;-80
2021/08/20 12:39:12;;;;;;;2.10;1.73;;;25.40;99.90;;;;;;5091896;28;20449;-81
2021/08/20 12:41:41;;;;;;;2.93;2.00;;;25.50;99.90;;;;;;5070833;28;20449;-80
2021/08/20 12:44:12;;;;;;;2.07;1.87;;;25.60;99.90;;;;;;5092405;28;20457;-81
2021/08/20 12:46:42;;;;;;;2.00;1.90;;;25.50;99.90;;;;;;5090456;28;20449;-81
2021/08/20 12:49:12;;;;;;;2.00;1.80;;;25.60;99.90;;;;;;5090993;28;20477;-81
2021/08/20 12:51:57;;;;;;;1.93;1.83;;;25.70;99.90;;;;;;5090684;28;20800;-80
2021/08/20 12:54:30;;;;;;;2.10;1.80;;;25.70;99.90;;;;;;5072770;28;20543;-81
2021/08/20 12:57:04;;;;;;;2.47;1.97;;;25.70;99.90;;;;;;5090388;28;20806;-81
2021/08/20 12:59:33;;;;;;;1.60;1.50;;;25.70;99.90;;;;;;5090271;28;20446;-81
2021/08/20 13:02:02;;;;;;;2.17;1.97;;;25.80;99.90;;;;;;5090451;28;20442;-80
2021/08/20 13:04:30;;;;;;;2.17;1.60;;;25.70;99.90;;;;;;5090144;28;20977;-81